createdAt,value
2017-08-17T14:25:55.653Z,1030
2017-08-17T14:26:36.173Z,1385
2017-08-17T14:27:16.673Z,745
2017-08-17T14:27:57.217Z,560
2017-08-17T14:28:38.686Z,1240
2017-08-17T14:29:19.132Z,830
2017-08-17T14:29:59.648Z,455
2017-08-17T14:30:40.110Z,410
2017-08-17T14:31:20.608Z,365
2017-08-17T14:32:01.104Z,340
2017-08-17T14:32:41.616Z,320
2017-08-17T14:33:22.108Z,465
2017-08-17T14:34:02.607Z,1100
2017-08-17T14:34:43.114Z,2640
2017-08-17T14:35:23.611Z,2750
2017-08-17T14:36:04.108Z,2805
2017-08-17T14:36:44.590Z,2345
2017-08-17T14:37:25.071Z,2500
2017-08-17T14:39:37.863Z,2720
2017-08-17T14:40:18.343Z,2000
2017-08-17T14:40:58.856Z,1390
2017-08-17T14:41:39.347Z,1320
2017-08-17T14:42:19.856Z,590
2017-08-17T14:43:00.357Z,515
2017-08-17T14:43:40.852Z,845
2017-08-17T14:44:21.382Z,455
2017-08-17T14:46:34.323Z,465
2017-08-17T14:47:14.768Z,740
2017-08-17T14:47:55.288Z,535
2017-08-17T14:50:23.529Z,635
2017-08-17T14:51:04.191Z,680
2017-08-17T14:51:44.699Z,740
2017-08-17T14:52:25.166Z,735
2017-08-17T14:53:05.721Z,770
2017-08-17T14:53:46.201Z,545
2017-08-17T14:54:26.677Z,580
2017-08-17T14:56:40.054Z,765
2017-08-17T14:57:20.565Z,810
2017-08-17T14:58:01.218Z,865
2017-08-17T14:58:41.754Z,940
2017-08-17T14:59:22.340Z,1005
2017-08-17T15:00:02.937Z,955
2017-08-17T15:00:43.482Z,765
2017-08-17T15:01:24.081Z,625
2017-08-17T15:02:04.571Z,535
2017-08-17T15:02:45.130Z,535
2017-08-17T15:03:25.679Z,600
2017-08-17T15:04:06.149Z,560
2017-08-17T15:04:46.713Z,500
2017-08-17T15:05:27.177Z,425
2017-08-17T15:06:07.816Z,430
2017-08-17T15:06:48.589Z,465
2017-08-17T15:07:29.233Z,405
2017-08-17T15:08:09.802Z,380
2017-08-17T15:08:50.287Z,370
2017-08-17T15:09:30.867Z,355
2017-08-17T15:10:11.363Z,350
2017-08-17T15:10:51.895Z,330
2017-08-17T15:11:32.416Z,320
2017-08-17T15:12:13.097Z,315
2017-08-17T15:12:54.106Z,305
2017-08-17T15:13:35.235Z,300
2017-08-17T15:14:16.149Z,300
2017-08-17T15:14:56.618Z,300
2017-08-17T15:15:37.496Z,305
2017-08-17T15:16:18.273Z,305
2017-08-17T15:16:58.864Z,310
2017-08-17T15:17:39.447Z,310
2017-08-17T15:18:19.956Z,305
2017-08-17T15:19:00.504Z,310
2017-08-17T15:19:41.440Z,315
2017-08-17T15:20:21.960Z,320
2017-08-17T15:21:02.511Z,330
2017-08-17T15:21:42.929Z,340
2017-08-17T15:22:23.373Z,360
2017-08-17T15:23:03.870Z,360
2017-08-17T15:23:44.367Z,375
2017-08-17T15:26:22.440Z,495
2017-08-17T15:27:02.931Z,545
2017-08-17T15:27:43.501Z,490
2017-08-17T15:28:24.050Z,500
2017-08-17T15:29:04.705Z,500
2017-08-17T15:29:45.243Z,595
2017-08-17T15:30:27.288Z,570
2017-08-17T15:31:10.357Z,545
2017-08-17T15:31:50.899Z,550
2017-08-17T15:32:31.420Z,510
2017-08-17T15:33:11.906Z,610
2017-08-17T15:33:52.410Z,615
2017-08-17T15:34:32.900Z,605
2017-08-17T15:35:13.390Z,595
2017-08-17T15:37:31.424Z,460
2017-08-17T15:38:11.895Z,510
2017-08-17T15:38:52.374Z,505
2017-08-17T15:39:32.851Z,495
2017-08-17T15:41:50.760Z,445
2017-08-17T15:42:31.234Z,435
2017-08-17T15:43:11.805Z,425
2017-08-17T15:43:52.260Z,410
2017-08-17T15:44:32.689Z,400
2017-08-17T15:45:13.180Z,380
2017-08-17T15:47:31.091Z,330
2017-08-17T15:48:11.564Z,290
2017-08-17T15:48:52.055Z,315
2017-08-17T15:49:32.702Z,280
2017-08-17T15:50:13.418Z,265
2017-08-17T15:50:53.937Z,210
2017-08-17T15:51:34.349Z,220
2017-08-17T15:52:14.828Z,265
2017-08-17T15:52:55.327Z,260
2017-08-17T15:53:35.860Z,270
2017-08-17T15:54:16.444Z,275
2017-08-17T15:54:56.925Z,280
2017-08-17T15:55:37.463Z,280
2017-08-17T15:56:17.994Z,280
2017-08-17T15:56:58.509Z,275
2017-08-17T15:59:36.695Z,270
2017-08-17T16:00:17.179Z,250
2017-08-17T16:00:57.704Z,200
2017-08-17T16:01:38.660Z,215
2017-08-17T16:02:18.892Z,280
2017-08-17T16:02:59.615Z,290
2017-08-17T16:03:40.309Z,290
2017-08-17T16:06:13.538Z,315
2017-08-17T16:06:54.931Z,320
2017-08-17T16:07:35.397Z,320
2017-08-17T16:08:15.854Z,330
2017-08-17T16:08:56.389Z,330
2017-08-17T16:09:37.817Z,315
2017-08-17T16:10:18.299Z,290
2017-08-17T16:10:58.912Z,280
2017-08-17T16:11:39.474Z,285
2017-08-17T16:12:20.369Z,285
2017-08-17T16:13:00.964Z,290
2017-08-17T16:13:41.446Z,290
2017-08-17T16:14:22.082Z,290
2017-08-17T16:16:50.086Z,270
2017-08-17T16:17:30.569Z,270
2017-08-17T16:18:11.075Z,270
2017-08-17T16:18:51.577Z,270
2017-08-17T16:19:32.053Z,265
2017-08-17T16:20:12.542Z,260
2017-08-17T16:20:53.025Z,260
2017-08-17T16:21:33.508Z,255
2017-08-17T16:22:13.937Z,245
2017-08-17T16:22:55.081Z,230
2017-08-17T16:25:12.930Z,240
2017-08-17T16:25:53.388Z,205
2017-08-17T16:26:34.031Z,130
2017-08-17T16:27:14.392Z,135
2017-08-17T16:27:54.857Z,145
2017-08-17T16:28:35.354Z,200
2017-08-17T16:29:15.854Z,220
2017-08-17T16:29:56.363Z,235
2017-08-17T16:30:36.853Z,240
2017-08-17T16:31:17.339Z,245
2017-08-17T16:31:57.825Z,245
2017-08-17T16:32:38.317Z,245
2017-08-17T16:35:06.788Z,250
2017-08-17T16:35:47.235Z,250
2017-08-17T16:36:27.691Z,255
2017-08-17T16:37:08.180Z,240
2017-08-17T16:39:26.076Z,150
2017-08-17T16:40:06.598Z,180
2017-08-17T16:40:47.140Z,145
2017-08-17T16:41:27.671Z,130
2017-08-17T16:42:08.175Z,125
2017-08-17T16:42:48.704Z,130
2017-08-17T16:43:29.230Z,125
2017-08-17T16:44:10.525Z,135
2017-08-17T16:46:28.348Z,165
2017-08-17T16:47:08.841Z,145
2017-08-17T16:47:49.322Z,125
2017-08-17T16:48:29.763Z,125
2017-08-17T16:49:10.224Z,125
2017-08-17T16:49:50.759Z,120
2017-08-17T16:50:31.181Z,125
2017-08-17T16:51:11.686Z,130
2017-08-17T16:51:52.143Z,135
2017-08-17T16:54:20.168Z,145
2017-08-17T16:55:00.593Z,150
2017-08-17T16:55:41.096Z,150
2017-08-17T16:56:21.608Z,150
2017-08-17T16:57:02.067Z,155
2017-08-17T16:57:42.588Z,155
2017-08-17T16:58:23.108Z,160
2017-08-17T16:59:03.610Z,155
2017-08-17T16:59:44.113Z,150
2017-08-17T17:00:24.616Z,145
2017-08-17T17:01:05.097Z,135
2017-08-17T17:01:45.589Z,130
2017-08-17T17:02:26.087Z,130
2017-08-17T17:03:06.574Z,125
2017-08-17T17:03:47.061Z,120
2017-08-17T17:04:27.566Z,120
2017-08-17T17:05:08.052Z,115
2017-08-17T17:05:48.541Z,115
2017-08-17T17:06:29.031Z,110
2017-08-17T17:07:09.538Z,110
2017-08-17T17:07:50.022Z,105
2017-08-17T17:08:30.533Z,105
2017-08-17T17:09:11.012Z,110
2017-08-17T17:09:51.501Z,110
2017-08-17T17:10:31.994Z,115
2017-08-17T17:11:12.500Z,115
2017-08-17T17:11:52.970Z,120
2017-08-17T17:12:33.474Z,125
2017-08-17T17:13:13.960Z,125
2017-08-17T17:13:54.454Z,125
2017-08-17T17:14:34.959Z,125
2017-08-17T17:15:15.431Z,130
2017-08-17T17:15:55.950Z,125
2017-08-17T17:16:36.441Z,125
2017-08-17T17:17:16.944Z,125
2017-08-17T17:17:57.459Z,125
2017-08-17T17:18:37.930Z,125
2017-08-17T17:19:18.420Z,120
2017-08-17T17:19:58.916Z,120
2017-08-17T17:20:39.411Z,120
2017-08-17T17:21:19.897Z,120
2017-08-17T17:22:00.407Z,115
2017-08-17T17:22:40.878Z,115
2017-08-17T17:23:21.373Z,115
2017-08-17T17:24:01.862Z,115
2017-08-17T17:24:42.363Z,115
2017-08-17T17:25:22.857Z,115
2017-08-17T17:26:03.380Z,115
2017-08-17T17:26:43.857Z,115
2017-08-17T17:27:24.361Z,115
2017-08-17T17:28:04.860Z,115
2017-08-17T17:28:45.348Z,110
2017-08-17T17:29:25.839Z,110
2017-08-17T17:30:06.331Z,110
2017-08-17T17:30:46.819Z,105
2017-08-17T17:31:27.321Z,105
2017-08-17T17:32:07.804Z,105
2017-08-17T17:32:48.302Z,105
2017-08-17T17:33:28.809Z,100
2017-08-17T17:34:09.287Z,100
2017-08-17T17:34:49.779Z,100
2017-08-17T17:35:30.276Z,100
2017-08-17T17:36:10.768Z,100
2017-08-17T17:36:51.257Z,100
2017-08-17T17:37:31.760Z,100
2017-08-17T17:38:12.240Z,100
2017-08-17T17:38:52.733Z,95
2017-08-17T17:39:33.235Z,95
2017-08-17T17:40:13.721Z,95
2017-08-17T17:40:54.221Z,90
2017-08-17T17:41:34.739Z,90
2017-08-17T17:42:15.230Z,85
2017-08-17T17:42:55.718Z,85
2017-08-17T17:43:36.221Z,80
2017-08-17T17:44:16.721Z,80
2017-08-17T17:44:57.213Z,80
2017-08-17T17:45:37.686Z,80
2017-08-17T17:47:50.465Z,75
2017-08-17T17:48:30.955Z,75
2017-08-17T17:49:11.420Z,75
2017-08-17T17:49:52.050Z,75
2017-08-17T17:50:32.344Z,75
2017-08-17T17:51:12.777Z,70
2017-08-17T17:51:53.266Z,70
2017-08-17T17:52:33.707Z,70
2017-08-17T17:53:14.282Z,70
2017-08-17T17:53:54.714Z,70
2017-08-17T17:54:35.224Z,70
2017-08-17T17:55:15.706Z,65
2017-08-17T17:57:28.456Z,55
2017-08-17T17:58:09.660Z,55
2017-08-17T17:58:50.167Z,50
2017-08-17T17:59:31.644Z,45
2017-08-17T18:00:12.142Z,45
2017-08-17T18:00:52.629Z,40
2017-08-17T18:01:33.124Z,40
2017-08-17T18:02:13.606Z,35
2017-08-17T18:02:54.083Z,35
2017-08-17T18:03:34.576Z,30
2017-08-17T18:04:15.091Z,30
2017-08-17T18:04:55.583Z,30
2017-08-17T18:05:36.075Z,30
2017-08-17T18:06:16.570Z,30
2017-08-17T18:06:57.060Z,30
2017-08-17T18:07:37.571Z,25
2017-08-17T18:08:18.029Z,25
2017-08-17T18:08:58.525Z,25
2017-08-17T18:09:39.008Z,25
2017-08-17T18:10:19.492Z,25
2017-08-17T18:10:59.984Z,20
2017-08-17T18:11:40.473Z,20
2017-08-17T18:12:20.974Z,20
2017-08-17T18:13:01.472Z,20
2017-08-17T18:13:41.958Z,20
2017-08-17T18:14:22.440Z,20
2017-08-17T18:15:02.942Z,20
2017-08-17T18:15:43.451Z,20
2017-08-17T18:16:23.923Z,20
2017-08-17T18:17:04.409Z,20
2017-08-17T18:17:44.908Z,20
2017-08-17T18:18:25.392Z,20
2017-08-17T18:19:05.888Z,20
2017-08-17T18:19:46.382Z,20
2017-08-17T18:20:26.872Z,20
2017-08-17T18:21:07.371Z,20
2017-08-17T18:21:47.870Z,20
2017-08-17T18:22:28.379Z,20
2017-08-17T18:23:08.876Z,15
2017-08-17T18:23:49.371Z,15
2017-08-17T18:24:29.849Z,15
2017-08-17T18:25:10.363Z,15
2017-08-17T18:25:50.841Z,15
2017-08-17T18:26:31.329Z,15
2017-08-17T18:27:11.830Z,15
2017-08-17T18:27:52.322Z,15
2017-08-17T18:28:32.815Z,10
2017-08-17T18:29:13.308Z,10
2017-08-17T18:29:53.804Z,10
2017-08-17T18:30:34.305Z,10
2017-08-17T18:31:14.806Z,10
2017-08-17T18:31:55.296Z,10
2017-08-17T18:32:35.800Z,10
2017-08-17T18:33:16.298Z,5
2017-08-17T18:33:56.831Z,5
2017-08-17T18:34:37.305Z,5
2017-08-17T18:35:17.817Z,5
2017-08-17T18:35:58.293Z,5
2017-08-17T18:36:38.791Z,5
2017-08-17T18:37:19.283Z,5
2017-08-17T18:37:59.785Z,5
2017-08-17T18:38:40.292Z,5
2017-08-17T18:39:20.801Z,5
2017-08-17T18:40:01.287Z,0
2017-08-17T18:40:41.782Z,0
2017-08-17T18:41:22.273Z,0
2017-08-17T18:42:02.765Z,0
2017-08-17T18:42:43.262Z,0
2017-08-17T18:43:23.743Z,0
2017-08-17T18:44:04.214Z,0
2017-08-17T18:44:44.714Z,0
2017-08-17T18:45:25.227Z,0
2017-08-17T18:46:05.717Z,0
2017-08-17T18:46:46.215Z,0
2017-08-17T18:47:26.714Z,0
2017-08-17T18:48:07.193Z,0
2017-08-17T18:48:47.688Z,0
2017-08-17T18:49:28.185Z,0
2017-08-17T18:50:08.668Z,0
2017-08-17T18:50:49.162Z,0
2017-08-17T18:51:29.666Z,0
2017-08-17T18:52:10.135Z,0
2017-08-17T18:52:50.610Z,0
2017-08-17T18:53:31.106Z,0
2017-08-17T18:54:11.600Z,0
2017-08-17T18:54:52.085Z,0
2017-08-17T18:57:25.115Z,0
2017-08-17T18:58:05.610Z,0
2017-08-17T18:58:46.102Z,0
2017-08-17T18:59:26.618Z,0
2017-08-17T19:00:07.111Z,0
2017-08-17T19:00:47.605Z,0
2017-08-17T19:01:28.067Z,0
2017-08-17T19:02:08.568Z,0
2017-08-17T19:02:49.068Z,0
2017-08-17T19:03:30.200Z,0
2017-08-17T19:04:10.700Z,0
2017-08-17T19:04:51.206Z,0
2017-08-17T19:05:31.712Z,0
2017-08-17T19:06:12.190Z,0
2017-08-17T19:06:52.687Z,0
2017-08-17T19:07:33.171Z,0
2017-08-17T19:08:13.665Z,0
2017-08-17T19:08:54.162Z,0
2017-08-17T19:09:34.659Z,0
2017-08-17T19:10:15.164Z,0
2017-08-17T19:10:55.668Z,0
2017-08-17T19:11:36.160Z,0
2017-08-17T19:12:16.656Z,0
2017-08-17T19:12:57.152Z,0
2017-08-17T19:13:37.642Z,0
2017-08-17T19:14:18.138Z,0
2017-08-17T19:14:58.623Z,0
2017-08-17T19:15:39.106Z,0
2017-08-17T19:16:19.570Z,0
2017-08-17T19:17:00.714Z,0
2017-08-17T19:17:41.211Z,0
2017-08-17T19:18:21.702Z,0
2017-08-17T19:19:02.186Z,0
2017-08-17T19:19:42.674Z,0
2017-08-17T19:20:23.145Z,0
2017-08-17T19:21:03.652Z,0
2017-08-17T19:23:41.750Z,0
2017-08-17T19:24:22.243Z,0
2017-08-17T19:25:02.727Z,0
2017-08-17T19:25:43.223Z,0
2017-08-17T19:28:16.249Z,0
2017-08-17T19:28:56.717Z,0
2017-08-17T19:29:37.190Z,0
2017-08-17T19:30:17.643Z,0
2017-08-17T19:30:58.073Z,0
2017-08-17T19:31:38.518Z,0
2017-08-17T19:32:18.985Z,0
2017-08-17T19:32:59.444Z,0
2017-08-17T19:33:39.890Z,0
2017-08-17T19:34:20.339Z,0
2017-08-17T19:35:00.821Z,0
2017-08-17T19:35:41.241Z,0
2017-08-17T19:36:21.706Z,0
2017-08-17T19:37:02.168Z,0
2017-08-17T19:37:42.663Z,0
2017-08-17T19:38:23.092Z,0
2017-08-17T19:39:03.600Z,0
2017-08-17T19:39:44.036Z,0
2017-08-17T19:40:24.479Z,0
2017-08-17T19:41:04.928Z,0
2017-08-17T19:41:45.361Z,0
2017-08-17T19:42:25.838Z,0
2017-08-17T19:43:06.281Z,0
2017-08-17T19:43:46.769Z,0
2017-08-17T19:44:27.206Z,0
2017-08-17T19:45:07.666Z,0
2017-08-17T19:45:48.167Z,0
2017-08-17T19:46:28.598Z,0
2017-08-17T19:49:01.611Z,0
2017-08-17T19:49:42.103Z,0
2017-08-17T19:50:22.599Z,0
2017-08-17T19:51:03.107Z,0
2017-08-17T19:51:43.582Z,0
2017-08-17T19:52:24.076Z,0
2017-08-17T19:53:04.562Z,0
2017-08-17T19:53:45.056Z,0
2017-08-17T19:54:25.550Z,0
2017-08-17T19:55:06.046Z,0
2017-08-17T19:55:46.545Z,0
2017-08-17T19:56:27.042Z,0
2017-08-17T19:57:07.531Z,0
2017-08-17T19:57:48.019Z,0
2017-08-17T19:58:28.520Z,0
2017-08-17T19:59:09.019Z,0
2017-08-17T19:59:49.509Z,0
2017-08-17T20:00:30.011Z,0
2017-08-17T20:01:10.525Z,0
2017-08-17T20:01:50.987Z,0
2017-08-17T20:02:31.483Z,0
2017-08-17T20:03:11.973Z,0
2017-08-17T20:03:52.459Z,0
2017-08-17T20:04:32.948Z,0
2017-08-17T20:05:13.454Z,0
2017-08-17T20:05:53.954Z,0
2017-08-17T20:06:34.460Z,0
2017-08-17T20:07:14.941Z,0
2017-08-17T20:07:55.423Z,0
2017-08-17T20:08:35.916Z,0
2017-08-17T20:09:16.415Z,0
2017-08-17T20:09:56.915Z,0
2017-08-17T20:10:37.416Z,0
2017-08-17T20:11:17.907Z,0
2017-08-17T20:11:58.426Z,0
2017-08-17T20:12:38.913Z,0
2017-08-17T20:13:19.418Z,0
2017-08-17T20:13:59.918Z,0
2017-08-17T20:16:12.675Z,0
2017-08-17T20:16:53.210Z,0
2017-08-17T20:17:33.656Z,0
2017-08-17T20:18:14.150Z,0
2017-08-17T20:18:54.658Z,0
2017-08-17T20:19:35.722Z,0
2017-08-17T20:20:16.214Z,0
2017-08-17T20:20:56.712Z,0
2017-08-17T20:21:37.194Z,0
2017-08-17T20:22:17.688Z,0
2017-08-17T20:22:58.165Z,0
2017-08-17T20:23:38.670Z,0
2017-08-17T20:24:19.161Z,0
2017-08-17T20:24:59.657Z,0
2017-08-17T20:25:40.155Z,0
2017-08-17T20:26:20.645Z,0
2017-08-17T20:27:01.137Z,0
2017-08-17T20:27:41.677Z,0
2017-08-17T20:28:22.724Z,0
2017-08-17T20:29:03.224Z,0
2017-08-17T20:29:43.716Z,0
2017-08-17T20:30:24.204Z,0
2017-08-17T20:31:04.698Z,0
2017-08-17T20:31:45.193Z,0
2017-08-17T20:32:25.690Z,0
2017-08-17T20:33:06.189Z,0
2017-08-17T20:33:46.673Z,0
2017-08-17T20:34:27.155Z,0
2017-08-17T20:35:07.643Z,0
2017-08-17T20:35:48.147Z,0
2017-08-17T20:36:28.651Z,0
2017-08-17T20:37:09.131Z,0
2017-08-17T20:37:49.625Z,0
2017-08-17T20:38:30.106Z,0
2017-08-17T20:39:10.596Z,0
2017-08-17T20:39:51.101Z,0
2017-08-17T20:40:31.596Z,0
2017-08-17T20:41:12.101Z,0
2017-08-17T20:41:52.586Z,0
2017-08-17T20:42:33.084Z,0
2017-08-17T20:43:13.577Z,0
2017-08-17T20:43:54.105Z,0
2017-08-17T20:44:34.567Z,0
2017-08-17T20:45:15.050Z,0
2017-08-17T20:45:55.575Z,0
2017-08-17T20:46:36.060Z,0
2017-08-17T20:47:16.530Z,0
2017-08-17T20:47:57.049Z,0
2017-08-17T20:48:37.541Z,0
2017-08-17T20:49:18.030Z,0
2017-08-17T20:49:58.530Z,0
2017-08-17T20:50:39.003Z,0
2017-08-17T20:51:19.506Z,0
2017-08-17T20:51:59.998Z,0
2017-08-17T20:52:40.508Z,0
2017-08-17T20:53:20.983Z,0
2017-08-17T20:54:01.465Z,0
2017-08-17T20:54:41.965Z,0
2017-08-17T20:55:22.460Z,0
2017-08-17T20:56:02.946Z,0
2017-08-17T20:56:43.438Z,0
2017-08-17T20:57:23.936Z,0
2017-08-17T20:58:04.430Z,0
2017-08-17T20:58:44.923Z,0
2017-08-17T20:59:25.420Z,0
2017-08-17T21:00:05.904Z,0
2017-08-17T21:00:46.389Z,0
2017-08-17T21:01:26.931Z,0
2017-08-17T21:02:07.410Z,0
2017-08-17T21:02:47.871Z,0
2017-08-17T21:03:28.369Z,0
2017-08-17T21:04:08.862Z,0
2017-08-17T21:04:49.341Z,0
2017-08-17T21:05:29.845Z,0
2017-08-17T21:06:10.340Z,0
2017-08-17T21:06:50.832Z,0
2017-08-17T21:07:31.330Z,0
2017-08-17T21:08:11.827Z,0
2017-08-17T21:08:52.307Z,0
2017-08-17T21:09:32.809Z,0
2017-08-17T21:10:13.304Z,0
2017-08-17T21:10:53.780Z,0
2017-08-17T21:11:34.265Z,0
2017-08-17T21:12:14.711Z,0
2017-08-17T21:14:27.435Z,0
2017-08-17T21:15:07.942Z,0
2017-08-17T21:15:48.424Z,0
2017-08-17T21:16:28.921Z,0
2017-08-17T21:17:09.414Z,0
2017-08-17T21:17:49.901Z,0
2017-08-17T21:18:30.395Z,0
2017-08-17T21:19:10.884Z,0
2017-08-17T21:19:51.402Z,0
2017-08-17T21:20:31.872Z,0
2017-08-17T21:21:12.359Z,0
2017-08-17T21:21:52.856Z,0
2017-08-17T21:22:33.352Z,0
2017-08-17T21:23:13.846Z,0
2017-08-17T21:23:54.349Z,0
2017-08-17T21:24:34.829Z,0
2017-08-17T21:25:15.323Z,0
2017-08-17T21:25:55.816Z,0
2017-08-17T21:26:36.316Z,0
2017-08-17T21:27:16.816Z,0
2017-08-17T21:27:57.317Z,0
2017-08-17T21:28:37.820Z,0
2017-08-17T21:29:18.331Z,0
2017-08-17T21:29:58.806Z,0
2017-08-17T21:30:39.295Z,0
2017-08-17T21:31:19.783Z,0
2017-08-17T21:32:00.297Z,0
2017-08-17T21:32:41.829Z,0
2017-08-17T21:33:21.439Z,0
2017-08-17T21:34:01.947Z,0
2017-08-17T21:34:42.432Z,0
2017-08-17T21:35:22.911Z,0
2017-08-17T21:36:04.366Z,0
2017-08-17T21:36:44.854Z,0
2017-08-17T21:37:25.405Z,0
2017-08-17T21:38:05.860Z,0
2017-08-17T21:38:46.357Z,0
2017-08-17T21:39:26.871Z,0
2017-08-17T21:40:07.394Z,0
2017-08-17T21:40:47.876Z,0
2017-08-17T21:41:28.373Z,0
2017-08-17T21:42:08.871Z,0
2017-08-17T21:42:49.356Z,0
2017-08-17T21:43:29.848Z,0
2017-08-17T21:44:11.176Z,0
2017-08-17T21:44:51.648Z,0
2017-08-17T21:45:32.123Z,0
2017-08-17T21:46:12.630Z,0
2017-08-17T21:46:53.113Z,0
2017-08-17T21:47:33.606Z,0
2017-08-17T21:48:14.102Z,0
2017-08-17T21:48:54.581Z,0
2017-08-17T21:49:35.059Z,0
2017-08-17T21:52:03.067Z,0
2017-08-17T21:52:43.522Z,0
2017-08-17T21:53:23.944Z,0
2017-08-17T21:54:04.432Z,0
2017-08-17T21:56:33.105Z,0
2017-08-17T21:57:13.640Z,0
2017-08-17T21:57:54.070Z,0
2017-08-17T21:58:34.571Z,0
2017-08-17T21:59:15.075Z,0
2017-08-17T21:59:55.555Z,0
2017-08-17T22:00:36.048Z,0
2017-08-17T22:01:16.508Z,0
2017-08-17T22:01:56.964Z,0
2017-08-17T22:02:37.426Z,0
2017-08-17T22:03:17.895Z,0
2017-08-17T22:03:58.389Z,0
2017-08-17T22:04:38.840Z,0
2017-08-17T22:05:19.950Z,0
2017-08-17T22:06:00.395Z,0
2017-08-17T22:06:40.880Z,0
2017-08-17T22:08:58.764Z,0
2017-08-17T22:09:39.837Z,0
2017-08-17T22:10:20.332Z,0
2017-08-17T22:11:00.817Z,0
2017-08-17T22:11:41.305Z,0
2017-08-17T22:12:21.816Z,0
2017-08-17T22:13:02.292Z,0
2017-08-17T22:13:43.678Z,0
2017-08-17T22:14:24.138Z,0
2017-08-17T22:15:04.638Z,0
2017-08-17T22:15:45.129Z,0
2017-08-17T22:16:25.610Z,0
2017-08-17T22:17:06.104Z,0
2017-08-17T22:17:47.465Z,0
2017-08-17T22:18:27.952Z,0
2017-08-17T22:19:08.459Z,0
2017-08-17T22:19:48.915Z,0
2017-08-17T22:20:29.397Z,0
2017-08-17T22:21:09.854Z,0
2017-08-17T22:21:50.335Z,0
2017-08-17T22:24:03.090Z,0
2017-08-17T22:24:43.524Z,0
2017-08-17T22:25:23.974Z,0
2017-08-17T22:26:04.457Z,0
2017-08-17T22:26:44.877Z,0
2017-08-17T22:27:25.341Z,0
2017-08-17T22:29:38.136Z,0
2017-08-17T22:30:18.568Z,0
2017-08-17T22:30:59.090Z,0
2017-08-17T22:31:39.555Z,0
2017-08-17T22:32:20.895Z,0
2017-08-17T22:33:01.386Z,0
2017-08-17T22:33:41.890Z,0
2017-08-17T22:34:22.393Z,0
2017-08-17T22:35:02.884Z,0
2017-08-17T22:35:43.380Z,0
2017-08-17T22:36:23.861Z,0
2017-08-17T22:37:04.339Z,0
2017-08-17T22:37:44.840Z,0
2017-08-17T22:38:25.324Z,0
2017-08-17T22:39:05.820Z,0
2017-08-17T22:39:46.312Z,0
2017-08-17T22:40:26.802Z,0
2017-08-17T22:41:07.295Z,0
2017-08-17T22:41:47.795Z,0
2017-08-17T22:42:28.301Z,0
2017-08-17T22:43:08.769Z,0
2017-08-17T22:43:49.275Z,0
2017-08-17T22:44:29.769Z,0
2017-08-17T22:45:10.261Z,0
2017-08-17T22:45:50.752Z,0
2017-08-17T22:46:31.249Z,0
2017-08-17T22:47:12.565Z,0
2017-08-17T22:47:53.081Z,0
2017-08-17T22:48:33.578Z,0
2017-08-17T22:49:14.065Z,0
2017-08-17T22:49:54.562Z,0
2017-08-17T22:50:35.045Z,0
2017-08-17T22:51:15.535Z,0
2017-08-17T22:51:56.656Z,0
2017-08-17T22:52:37.137Z,0
2017-08-17T22:53:17.635Z,0
2017-08-17T22:53:58.143Z,0
2017-08-17T22:54:38.620Z,0
2017-08-17T22:55:19.109Z,0
2017-08-17T22:55:59.606Z,0
2017-08-17T22:56:40.892Z,0
2017-08-17T22:57:21.376Z,0
2017-08-17T22:58:01.867Z,0
2017-08-17T22:58:43.083Z,0
2017-08-17T22:59:23.560Z,0
2017-08-17T23:00:04.058Z,0
2017-08-17T23:00:45.170Z,0
2017-08-17T23:01:25.646Z,0
2017-08-17T23:02:06.145Z,0
2017-08-17T23:02:46.651Z,0
2017-08-17T23:03:27.132Z,0
2017-08-17T23:04:08.492Z,0
2017-08-17T23:04:48.993Z,0
2017-08-17T23:05:29.489Z,0
2017-08-17T23:06:10.019Z,0
2017-08-17T23:06:51.298Z,0
2017-08-17T23:07:32.312Z,0
2017-08-17T23:08:12.794Z,0
2017-08-17T23:08:53.908Z,0
2017-08-17T23:09:35.295Z,0
2017-08-17T23:10:15.786Z,0
2017-08-17T23:10:56.263Z,0
2017-08-17T23:11:37.424Z,0
2017-08-17T23:12:17.905Z,0
2017-08-17T23:12:59.400Z,0
2017-08-17T23:13:39.886Z,0
2017-08-17T23:14:20.381Z,0
2017-08-17T23:15:02.499Z,0
2017-08-17T23:15:43.893Z,0
2017-08-17T23:16:24.385Z,0
2017-08-17T23:17:04.861Z,0
2017-08-17T23:17:46.175Z,0
2017-08-17T23:18:27.430Z,0
2017-08-17T23:19:07.912Z,0
2017-08-17T23:19:48.408Z,0
2017-08-17T23:20:28.892Z,0
2017-08-17T23:21:09.373Z,0
2017-08-17T23:21:49.892Z,0
2017-08-17T23:22:30.351Z,0
2017-08-17T23:23:10.843Z,0
2017-08-17T23:23:51.334Z,0
2017-08-17T23:24:32.509Z,0
2017-08-17T23:25:12.996Z,0
2017-08-17T23:25:54.166Z,0
2017-08-17T23:26:34.670Z,0
2017-08-17T23:27:15.166Z,0
2017-08-17T23:27:55.675Z,0
2017-08-17T23:28:36.163Z,0
2017-08-17T23:29:16.668Z,0
2017-08-17T23:29:57.163Z,0
2017-08-17T23:30:37.655Z,0
2017-08-17T23:31:19.006Z,0
2017-08-17T23:31:59.504Z,0
2017-08-17T23:32:40.819Z,0
2017-08-17T23:33:21.304Z,0
2017-08-17T23:34:01.790Z,0
2017-08-17T23:34:42.288Z,0
2017-08-17T23:35:22.808Z,0
2017-08-17T23:36:04.100Z,0
2017-08-17T23:36:44.619Z,0
2017-08-17T23:37:25.093Z,0
2017-08-17T23:38:05.580Z,0
2017-08-17T23:38:46.111Z,0
2017-08-17T23:39:26.572Z,0
2017-08-17T23:40:07.071Z,0
2017-08-17T23:40:47.572Z,0
2017-08-17T23:41:28.050Z,0
2017-08-17T23:42:09.412Z,0
2017-08-17T23:42:49.901Z,0
2017-08-17T23:43:30.381Z,0
2017-08-17T23:44:11.702Z,0
2017-08-17T23:44:52.183Z,0
2017-08-17T23:45:33.518Z,0
2017-08-17T23:46:14.025Z,0
2017-08-17T23:46:54.493Z,0
2017-08-17T23:47:34.976Z,0
2017-08-17T23:48:15.487Z,0
2017-08-17T23:48:56.607Z,0
2017-08-17T23:49:37.829Z,0
2017-08-17T23:50:18.310Z,0
2017-08-17T23:50:59.422Z,0
2017-08-17T23:51:39.907Z,0
2017-08-17T23:52:20.399Z,0
2017-08-17T23:53:00.904Z,0
2017-08-17T23:53:42.186Z,0
2017-08-17T23:54:22.694Z,0
2017-08-17T23:55:03.162Z,0
2017-08-17T23:55:43.648Z,0
2017-08-17T23:56:24.152Z,0
2017-08-17T23:57:04.633Z,0
2017-08-17T23:57:45.125Z,0
2017-08-17T23:58:26.318Z,0
2017-08-17T23:59:06.812Z,0
2017-08-17T23:59:47.291Z,0
